sensor_id;sensor_type;location;lat;lon;timestamp;temperature;humidity
29417;DHT22;28421;51.030;4.006;2022-07-04T00:00:53;14.90;99.90
29417;DHT22;28421;51.030;4.006;2022-07-04T00:03:19;14.50;99.90
29417;DHT22;28421;51.030;4.006;2022-07-04T00:05:44;14.40;99.90
29417;DHT22;28421;51.030;4.006;2022-07-04T00:08:10;14.70;99.90
29417;DHT22;28421;51.030;4.006;2022-07-04T00:10:36;14.40;99.90
29417;DHT22;28421;51.030;4.006;2022-07-04T00:13:01;14.20;99.90
29417;DHT22;28421;51.030;4.006;2022-07-04T00:20:19;14.30;99.90
29417;DHT22;28421;51.030;4.006;2022-07-04T00:22:45;13.50;99.90
29417;DHT22;28421;51.030;4.006;2022-07-04T00:25:11;13.70;99.90
29417;DHT22;28421;51.030;4.006;2022-07-04T00:27:37;13.60;99.90
29417;DHT22;28421;51.030;4.006;2022-07-04T00:30:04;13.50;99.90
29417;DHT22;28421;51.030;4.006;2022-07-04T00:32:30;13.60;99.90
29417;DHT22;28421;51.030;4.006;2022-07-04T00:39:48;13.20;99.90
29417;DHT22;28421;51.030;4.006;2022-07-04T00:42:14;13.70;99.90
29417;DHT22;28421;51.030;4.006;2022-07-04T00:44:40;13.50;99.90
29417;DHT22;28421;51.030;4.006;2022-07-04T00:47:06;13.50;99.90
29417;DHT22;28421;51.030;4.006;2022-07-04T00:49:33;13.50;99.90
29417;DHT22;28421;51.030;4.006;2022-07-04T00:51:59;13.40;99.90
29417;DHT22;28421;51.030;4.006;2022-07-04T00:54:31;13.50;99.90
29417;DHT22;28421;51.030;4.006;2022-07-04T00:56:58;14.20;99.90
29417;DHT22;28421;51.030;4.006;2022-07-04T00:59:24;13.90;99.90
29417;DHT22;28421;51.030;4.006;2022-07-04T01:01:50;13.80;99.90
29417;DHT22;28421;51.030;4.006;2022-07-04T01:04:16;13.80;99.90
29417;DHT22;28421;51.030;4.006;2022-07-04T01:06:42;14.30;99.90
29417;DHT22;28421;51.030;4.006;2022-07-04T01:09:08;14.10;99.90
29417;DHT22;28421;51.030;4.006;2022-07-04T01:11:34;14.10;99.90
29417;DHT22;28421;51.030;4.006;2022-07-04T01:14:00;13.80;99.90
29417;DHT22;28421;51.030;4.006;2022-07-04T01:16:27;14.10;99.90
29417;DHT22;28421;51.030;4.006;2022-07-04T01:18:54;14.00;99.90
29417;DHT22;28421;51.030;4.006;2022-07-04T01:21:20;14.00;99.90
29417;DHT22;28421;51.030;4.006;2022-07-04T01:23:46;14.10;99.90
29417;DHT22;28421;51.030;4.006;2022-07-04T01:26:12;13.50;99.90
29417;DHT22;28421;51.030;4.006;2022-07-04T01:28:39;13.90;99.90
29417;DHT22;28421;51.030;4.006;2022-07-04T01:31:05;14.00;99.90
29417;DHT22;28421;51.030;4.006;2022-07-04T01:33:31;13.60;99.90
29417;DHT22;28421;51.030;4.006;2022-07-04T01:35:57;14.00;99.90
29417;DHT22;28421;51.030;4.006;2022-07-04T01:38:23;13.90;99.90
29417;DHT22;28421;51.030;4.006;2022-07-04T01:40:49;13.70;99.90
29417;DHT22;28421;51.030;4.006;2022-07-04T01:43:15;13.60;99.90
29417;DHT22;28421;51.030;4.006;2022-07-04T01:45:41;14.10;99.90
29417;DHT22;28421;51.030;4.006;2022-07-04T01:48:08;13.70;99.90
29417;DHT22;28421;51.030;4.006;2022-07-04T01:50:34;13.60;99.90
29417;DHT22;28421;51.030;4.006;2022-07-04T01:53:00;13.60;99.90
29417;DHT22;28421;51.030;4.006;2022-07-04T01:55:26;13.30;99.90
29417;DHT22;28421;51.030;4.006;2022-07-04T01:57:52;13.30;99.90
29417;DHT22;28421;51.030;4.006;2022-07-04T02:03:04;13.10;99.90
29417;DHT22;28421;51.030;4.006;2022-07-04T02:05:30;13.00;99.90
29417;DHT22;28421;51.030;4.006;2022-07-04T02:10:21;13.10;99.90
29417;DHT22;28421;51.030;4.006;2022-07-04T02:12:47;13.50;99.90
29417;DHT22;28421;51.030;4.006;2022-07-04T02:15:33;13.40;99.90
29417;DHT22;28421;51.030;4.006;2022-07-04T02:18:01;13.30;99.90
29417;DHT22;28421;51.030;4.006;2022-07-04T02:25:19;13.40;99.90
29417;DHT22;28421;51.030;4.006;2022-07-04T02:30:12;12.40;99.90
29417;DHT22;28421;51.030;4.006;2022-07-04T02:35:04;12.70;99.90
29417;DHT22;28421;51.030;4.006;2022-07-04T02:37:30;12.50;99.90
29417;DHT22;28421;51.030;4.006;2022-07-04T02:39:56;12.00;99.90
29417;DHT22;28421;51.030;4.006;2022-07-04T02:42:22;12.30;99.90
29417;DHT22;28421;51.030;4.006;2022-07-04T02:47:15;12.60;99.90
29417;DHT22;28421;51.030;4.006;2022-07-04T02:49:41;12.40;99.90
29417;DHT22;28421;51.030;4.006;2022-07-04T02:52:06;12.50;99.90
29417;DHT22;28421;51.030;4.006;2022-07-04T03:01:50;12.70;99.90
29417;DHT22;28421;51.030;4.006;2022-07-04T03:09:09;12.30;99.90
29417;DHT22;28421;51.030;4.006;2022-07-04T03:14:02;12.60;99.90
29417;DHT22;28421;51.030;4.006;2022-07-04T03:16:27;12.20;99.90
29417;DHT22;28421;51.030;4.006;2022-07-04T03:18:53;12.10;99.90
29417;DHT22;28421;51.030;4.006;2022-07-04T03:26:32;12.30;99.90
29417;DHT22;28421;51.030;4.006;2022-07-04T03:28:59;12.60;99.90
29417;DHT22;28421;51.030;4.006;2022-07-04T03:31:25;12.20;99.90
29417;DHT22;28421;51.030;4.006;2022-07-04T03:33:52;12.50;99.90
29417;DHT22;28421;51.030;4.006;2022-07-04T03:38:44;12.40;99.90
29417;DHT22;28421;51.030;4.006;2022-07-04T03:43:36;12.40;99.90
29417;DHT22;28421;51.030;4.006;2022-07-04T03:50:55;12.60;99.90
29417;DHT22;28421;51.030;4.006;2022-07-04T03:53:21;12.70;99.90
29417;DHT22;28421;51.030;4.006;2022-07-04T04:03:07;13.10;99.90
29417;DHT22;28421;51.030;4.006;2022-07-04T04:05:54;12.80;99.90
29417;DHT22;28421;51.030;4.006;2022-07-04T04:08:20;12.70;99.90
29417;DHT22;28421;51.030;4.006;2022-07-04T04:10:45;12.60;99.90
29417;DHT22;28421;51.030;4.006;2022-07-04T04:13:11;12.30;99.90
29417;DHT22;28421;51.030;4.006;2022-07-04T04:15:37;12.60;99.90
29417;DHT22;28421;51.030;4.006;2022-07-04T04:20:29;13.20;99.90
29417;DHT22;28421;51.030;4.006;2022-07-04T04:22:54;13.20;99.90
29417;DHT22;28421;51.030;4.006;2022-07-04T04:27:46;12.60;99.90
29417;DHT22;28421;51.030;4.006;2022-07-04T04:30:12;13.10;99.90
29417;DHT22;28421;51.030;4.006;2022-07-04T04:35:04;13.30;99.90
29417;DHT22;28421;51.030;4.006;2022-07-04T04:39:56;13.30;99.90
29417;DHT22;28421;51.030;4.006;2022-07-04T04:42:22;13.80;99.90
29417;DHT22;28421;51.030;4.006;2022-07-04T04:44:47;13.60;99.90
29417;DHT22;28421;51.030;4.006;2022-07-04T04:47:13;13.40;99.90
29417;DHT22;28421;51.030;4.006;2022-07-04T04:49:39;13.40;99.90
29417;DHT22;28421;51.030;4.006;2022-07-04T04:52:05;13.70;99.90
29417;DHT22;28421;51.030;4.006;2022-07-04T04:54:32;14.00;99.90
29417;DHT22;28421;51.030;4.006;2022-07-04T04:56:58;13.70;99.90
29417;DHT22;28421;51.030;4.006;2022-07-04T04:59:24;13.80;99.90
29417;DHT22;28421;51.030;4.006;2022-07-04T05:01:50;13.80;99.90
29417;DHT22;28421;51.030;4.006;2022-07-04T05:04:16;13.90;99.90
29417;DHT22;28421;51.030;4.006;2022-07-04T05:06:42;14.40;99.90
29417;DHT22;28421;51.030;4.006;2022-07-04T05:09:08;14.20;99.90
29417;DHT22;28421;51.030;4.006;2022-07-04T05:11:33;14.50;99.90
29417;DHT22;28421;51.030;4.006;2022-07-04T05:16:27;14.60;99.90
29417;DHT22;28421;51.030;4.006;2022-07-04T05:18:52;15.00;99.90
29417;DHT22;28421;51.030;4.006;2022-07-04T05:21:18;15.00;99.90
29417;DHT22;28421;51.030;4.006;2022-07-04T05:23:44;15.00;99.90
29417;DHT22;28421;51.030;4.006;2022-07-04T05:26:09;15.00;99.90
29417;DHT22;28421;51.030;4.006;2022-07-04T05:28:35;15.20;99.90
29417;DHT22;28421;51.030;4.006;2022-07-04T05:31:01;15.30;99.90
29417;DHT22;28421;51.030;4.006;2022-07-04T05:33:26;15.50;99.90
29417;DHT22;28421;51.030;4.006;2022-07-04T05:35:52;14.90;99.90
29417;DHT22;28421;51.030;4.006;2022-07-04T05:38:18;15.80;99.90
29417;DHT22;28421;51.030;4.006;2022-07-04T05:40:44;15.30;99.90
29417;DHT22;28421;51.030;4.006;2022-07-04T05:43:10;16.00;99.90
29417;DHT22;28421;51.030;4.006;2022-07-04T05:45:37;18.80;99.90
29417;DHT22;28421;51.030;4.006;2022-07-04T05:50:29;16.60;99.90
29417;DHT22;28421;51.030;4.006;2022-07-04T05:52:55;16.40;99.90
29417;DHT22;28421;51.030;4.006;2022-07-04T05:55:20;15.80;99.90
29417;DHT22;28421;51.030;4.006;2022-07-04T06:05:04;16.10;99.90
29417;DHT22;28421;51.030;4.006;2022-07-04T06:07:31;15.80;99.90
29417;DHT22;28421;51.030;4.006;2022-07-04T06:09:57;15.70;99.90
29417;DHT22;28421;51.030;4.006;2022-07-04T06:12:22;15.90;99.90
29417;DHT22;28421;51.030;4.006;2022-07-04T06:14:48;15.90;99.90
29417;DHT22;28421;51.030;4.006;2022-07-04T06:17:14;16.80;99.90
29417;DHT22;28421;51.030;4.006;2022-07-04T06:19:39;16.50;99.90
29417;DHT22;28421;51.030;4.006;2022-07-04T06:22:05;16.80;99.90
29417;DHT22;28421;51.030;4.006;2022-07-04T06:24:31;17.10;99.90
29417;DHT22;28421;51.030;4.006;2022-07-04T06:26:56;17.20;99.90
29417;DHT22;28421;51.030;4.006;2022-07-04T06:31:48;17.60;99.90
29417;DHT22;28421;51.030;4.006;2022-07-04T06:36:59;17.20;99.90
29417;DHT22;28421;51.030;4.006;2022-07-04T06:39:24;17.90;99.90
29417;DHT22;28421;51.030;4.006;2022-07-04T06:41:50;17.70;99.90
29417;DHT22;28421;51.030;4.006;2022-07-04T06:44:16;18.00;99.90
29417;DHT22;28421;51.030;4.006;2022-07-04T06:46:41;18.20;99.90
29417;DHT22;28421;51.030;4.006;2022-07-04T06:49:07;18.00;99.90
29417;DHT22;28421;51.030;4.006;2022-07-04T06:51:33;18.50;99.90
29417;DHT22;28421;51.030;4.006;2022-07-04T06:53:58;18.50;99.90
29417;DHT22;28421;51.030;4.006;2022-07-04T06:56:24;18.80;99.90
29417;DHT22;28421;51.030;4.006;2022-07-04T06:58:50;17.70;99.90
29417;DHT22;28421;51.030;4.006;2022-07-04T07:06:08;17.20;99.90
29417;DHT22;28421;51.030;4.006;2022-07-04T07:08:33;17.30;99.90
29417;DHT22;28421;51.030;4.006;2022-07-04T07:11:00;17.70;99.90
29417;DHT22;28421;51.030;4.006;2022-07-04T07:13:45;18.00;99.90
29417;DHT22;28421;51.030;4.006;2022-07-04T07:16:12;18.40;99.90
29417;DHT22;28421;51.030;4.006;2022-07-04T07:18:37;18.20;99.90
29417;DHT22;28421;51.030;4.006;2022-07-04T07:21:03;18.40;99.90
29417;DHT22;28421;51.030;4.006;2022-07-04T07:23:29;18.40;99.90
29417;DHT22;28421;51.030;4.006;2022-07-04T07:25:55;18.20;99.90
29417;DHT22;28421;51.030;4.006;2022-07-04T07:28:21;18.70;99.90
29417;DHT22;28421;51.030;4.006;2022-07-04T07:30:47;19.00;99.90
29417;DHT22;28421;51.030;4.006;2022-07-04T07:33:13;19.20;99.90
29417;DHT22;28421;51.030;4.006;2022-07-04T07:35:38;19.00;99.90
29417;DHT22;28421;51.030;4.006;2022-07-04T07:38:04;19.00;99.90
29417;DHT22;28421;51.030;4.006;2022-07-04T07:40:31;19.30;99.90
29417;DHT22;28421;51.030;4.006;2022-07-04T07:42:57;18.60;99.90
29417;DHT22;28421;51.030;4.006;2022-07-04T07:45:23;19.00;99.90
29417;DHT22;28421;51.030;4.006;2022-07-04T07:47:49;18.80;99.90
29417;DHT22;28421;51.030;4.006;2022-07-04T07:50:15;19.40;99.90
29417;DHT22;28421;51.030;4.006;2022-07-04T07:52:41;19.20;99.90
29417;DHT22;28421;51.030;4.006;2022-07-04T07:55:07;19.20;99.90
29417;DHT22;28421;51.030;4.006;2022-07-04T08:02:25;18.90;99.90
29417;DHT22;28421;51.030;4.006;2022-07-04T08:05:10;19.30;99.90
29417;DHT22;28421;51.030;4.006;2022-07-04T08:10:03;19.50;99.90
29417;DHT22;28421;51.030;4.006;2022-07-04T08:14:56;19.50;99.90
29417;DHT22;28421;51.030;4.006;2022-07-04T08:17:22;18.50;99.90
29417;DHT22;28421;51.030;4.006;2022-07-04T08:19:48;18.60;99.90
29417;DHT22;28421;51.030;4.006;2022-07-04T08:22:14;19.10;99.90
29417;DHT22;28421;51.030;4.006;2022-07-04T08:24:39;19.00;99.90
29417;DHT22;28421;51.030;4.006;2022-07-04T08:27:05;19.30;99.90
29417;DHT22;28421;51.030;4.006;2022-07-04T08:29:31;18.90;99.90
29417;DHT22;28421;51.030;4.006;2022-07-04T08:31:57;18.90;99.90
29417;DHT22;28421;51.030;4.006;2022-07-04T08:34:24;19.10;99.90
29417;DHT22;28421;51.030;4.006;2022-07-04T08:36:49;18.90;99.90
29417;DHT22;28421;51.030;4.006;2022-07-04T08:39:15;19.20;99.90
29417;DHT22;28421;51.030;4.006;2022-07-04T08:41:42;19.40;99.90
29417;DHT22;28421;51.030;4.006;2022-07-04T08:44:09;19.90;99.90
29417;DHT22;28421;51.030;4.006;2022-07-04T08:46:39;19.90;99.90
29417;DHT22;28421;51.030;4.006;2022-07-04T08:49:20;20.10;99.90
29417;DHT22;28421;51.030;4.006;2022-07-04T08:52:00;20.70;99.90
29417;DHT22;28421;51.030;4.006;2022-07-04T08:54:27;20.90;99.90
29417;DHT22;28421;51.030;4.006;2022-07-04T08:57:13;20.90;99.90
29417;DHT22;28421;51.030;4.006;2022-07-04T08:59:58;20.90;99.90
29417;DHT22;28421;51.030;4.006;2022-07-04T09:02:27;20.00;99.90
29417;DHT22;28421;51.030;4.006;2022-07-04T09:04:53;20.30;99.90
29417;DHT22;28421;51.030;4.006;2022-07-04T09:09:46;20.40;99.90
29417;DHT22;28421;51.030;4.006;2022-07-04T09:14:39;20.90;99.90
29417;DHT22;28421;51.030;4.006;2022-07-04T09:17:05;20.80;99.90
29417;DHT22;28421;51.030;4.006;2022-07-04T09:19:32;21.00;99.90
29417;DHT22;28421;51.030;4.006;2022-07-04T09:22:07;21.10;99.90
29417;DHT22;28421;51.030;4.006;2022-07-04T09:24:50;21.00;99.90
29417;DHT22;28421;51.030;4.006;2022-07-04T09:27:37;21.30;99.90
29417;DHT22;28421;51.030;4.006;2022-07-04T09:30:06;21.80;99.90
29417;DHT22;28421;51.030;4.006;2022-07-04T09:32:46;21.70;99.90
29417;DHT22;28421;51.030;4.006;2022-07-04T09:35:17;22.40;99.90
29417;DHT22;28421;51.030;4.006;2022-07-04T09:37:45;22.70;99.90
29417;DHT22;28421;51.030;4.006;2022-07-04T09:40:27;22.50;99.90
29417;DHT22;28421;51.030;4.006;2022-07-04T09:42:55;22.60;99.90
29417;DHT22;28421;51.030;4.006;2022-07-04T09:45:22;22.10;99.90
29417;DHT22;28421;51.030;4.006;2022-07-04T09:47:56;21.70;99.90
29417;DHT22;28421;51.030;4.006;2022-07-04T09:50:22;21.60;99.90
29417;DHT22;28421;51.030;4.006;2022-07-04T09:55:29;22.20;99.90
29417;DHT22;28421;51.030;4.006;2022-07-04T09:58:01;22.50;99.90
29417;DHT22;28421;51.030;4.006;2022-07-04T10:00:32;22.20;99.90
29417;DHT22;28421;51.030;4.006;2022-07-04T10:03:28;23.00;99.90
29417;DHT22;28421;51.030;4.006;2022-07-04T10:06:10;23.20;99.90
29417;DHT22;28421;51.030;4.006;2022-07-04T10:08:37;22.80;99.90
29417;DHT22;28421;51.030;4.006;2022-07-04T10:11:04;22.80;99.90
29417;DHT22;28421;51.030;4.006;2022-07-04T10:13:30;23.00;99.90
29417;DHT22;28421;51.030;4.006;2022-07-04T10:15:56;23.40;99.90
29417;DHT22;28421;51.030;4.006;2022-07-04T10:18:24;23.20;99.90
29417;DHT22;28421;51.030;4.006;2022-07-04T10:20:51;23.10;99.90
29417;DHT22;28421;51.030;4.006;2022-07-04T10:23:18;22.50;99.90
29417;DHT22;28421;51.030;4.006;2022-07-04T10:25:48;22.10;99.90
29417;DHT22;28421;51.030;4.006;2022-07-04T10:28:16;22.20;99.90
29417;DHT22;28421;51.030;4.006;2022-07-04T10:30:42;22.20;99.90
29417;DHT22;28421;51.030;4.006;2022-07-04T10:33:10;22.80;99.90
29417;DHT22;28421;51.030;4.006;2022-07-04T10:38:54;23.20;99.90
29417;DHT22;28421;51.030;4.006;2022-07-04T10:41:22;23.40;99.90
29417;DHT22;28421;51.030;4.006;2022-07-04T10:51:44;23.20;99.90
29417;DHT22;28421;51.030;4.006;2022-07-04T10:56:47;23.40;99.90
29417;DHT22;28421;51.030;4.006;2022-07-04T10:59:20;23.50;99.90
29417;DHT22;28421;51.030;4.006;2022-07-04T11:01:52;23.70;99.90
29417;DHT22;28421;51.030;4.006;2022-07-04T11:07:15;22.90;99.90
29417;DHT22;28421;51.030;4.006;2022-07-04T11:09:42;22.90;99.90
29417;DHT22;28421;51.030;4.006;2022-07-04T11:12:08;22.80;99.90
29417;DHT22;28421;51.030;4.006;2022-07-04T11:17:20;22.50;99.90
29417;DHT22;28421;51.030;4.006;2022-07-04T11:19:46;22.70;99.90
29417;DHT22;28421;51.030;4.006;2022-07-04T11:22:21;23.10;99.90
29417;DHT22;28421;51.030;4.006;2022-07-04T11:24:48;23.30;99.90
29417;DHT22;28421;51.030;4.006;2022-07-04T11:27:14;23.50;99.90
29417;DHT22;28421;51.030;4.006;2022-07-04T11:29:52;23.40;99.90
29417;DHT22;28421;51.030;4.006;2022-07-04T11:32:19;23.20;99.90
29417;DHT22;28421;51.030;4.006;2022-07-04T11:34:45;23.30;99.90
29417;DHT22;28421;51.030;4.006;2022-07-04T11:37:12;23.60;99.90
29417;DHT22;28421;51.030;4.006;2022-07-04T11:39:38;23.40;99.90
29417;DHT22;28421;51.030;4.006;2022-07-04T11:42:04;23.60;99.90
29417;DHT22;28421;51.030;4.006;2022-07-04T11:44:48;24.00;99.90
29417;DHT22;28421;51.030;4.006;2022-07-04T11:47:41;24.30;99.90
29417;DHT22;28421;51.030;4.006;2022-07-04T11:50:12;24.40;99.90
29417;DHT22;28421;51.030;4.006;2022-07-04T11:55:09;24.70;99.90
29417;DHT22;28421;51.030;4.006;2022-07-04T11:57:41;24.70;99.90
29417;DHT22;28421;51.030;4.006;2022-07-04T12:00:12;24.90;99.90
29417;DHT22;28421;51.030;4.006;2022-07-04T12:02:39;24.60;99.90
29417;DHT22;28421;51.030;4.006;2022-07-04T12:05:06;24.80;99.60
29417;DHT22;28421;51.030;4.006;2022-07-04T12:07:34;25.10;98.10
29417;DHT22;28421;51.030;4.006;2022-07-04T12:10:21;25.20;99.90
29417;DHT22;28421;51.030;4.006;2022-07-04T12:12:55;25.30;98.80
29417;DHT22;28421;51.030;4.006;2022-07-04T12:15:22;25.80;97.80
29417;DHT22;28421;51.030;4.006;2022-07-04T12:17:53;26.20;97.10
29417;DHT22;28421;51.030;4.006;2022-07-04T12:20:24;26.40;99.90
29417;DHT22;28421;51.030;4.006;2022-07-04T12:22:52;26.30;94.50
29417;DHT22;28421;51.030;4.006;2022-07-04T12:25:35;26.50;94.50
29417;DHT22;28421;51.030;4.006;2022-07-04T12:28:06;26.80;94.10
29417;DHT22;28421;51.030;4.006;2022-07-04T12:30:56;26.40;95.00
29417;DHT22;28421;51.030;4.006;2022-07-04T12:33:27;26.10;96.40
29417;DHT22;28421;51.030;4.006;2022-07-04T12:35:59;26.40;96.60
29417;DHT22;28421;51.030;4.006;2022-07-04T12:48:41;25.90;95.20
29417;DHT22;28421;51.030;4.006;2022-07-04T12:53:51;26.30;94.90
29417;DHT22;28421;51.030;4.006;2022-07-04T12:59:00;27.00;99.90
29417;DHT22;28421;51.030;4.006;2022-07-04T13:01:26;26.60;94.70
29417;DHT22;28421;51.030;4.006;2022-07-04T13:03:51;26.20;94.30
29417;DHT22;28421;51.030;4.006;2022-07-04T13:06:17;25.60;95.60
29417;DHT22;28421;51.030;4.006;2022-07-04T13:08:43;25.70;95.90
29417;DHT22;28421;51.030;4.006;2022-07-04T13:11:09;26.40;95.70
29417;DHT22;28421;51.030;4.006;2022-07-04T13:13:53;26.70;94.80
29417;DHT22;28421;51.030;4.006;2022-07-04T13:16:18;27.00;94.50
29417;DHT22;28421;51.030;4.006;2022-07-04T13:18:44;26.90;93.80
29417;DHT22;28421;51.030;4.006;2022-07-04T13:21:10;26.40;94.00
29417;DHT22;28421;51.030;4.006;2022-07-04T13:23:36;26.60;95.00
29417;DHT22;28421;51.030;4.006;2022-07-04T13:26:03;27.00;95.00
29417;DHT22;28421;51.030;4.006;2022-07-04T13:28:29;27.40;94.80
29417;DHT22;28421;51.030;4.006;2022-07-04T13:30:55;27.70;93.50
29417;DHT22;28421;51.030;4.006;2022-07-04T13:33:21;27.40;94.20
29417;DHT22;28421;51.030;4.006;2022-07-04T13:38:12;28.10;93.90
29417;DHT22;28421;51.030;4.006;2022-07-04T13:40:43;27.90;93.00
29417;DHT22;28421;51.030;4.006;2022-07-04T13:43:09;27.10;93.20
29417;DHT22;28421;51.030;4.006;2022-07-04T13:45:36;27.00;93.90
29417;DHT22;28421;51.030;4.006;2022-07-04T13:48:02;26.60;94.50
29417;DHT22;28421;51.030;4.006;2022-07-04T13:50:27;27.10;94.70
29417;DHT22;28421;51.030;4.006;2022-07-04T13:52:53;27.30;94.10
29417;DHT22;28421;51.030;4.006;2022-07-04T13:57:45;26.30;92.50
29417;DHT22;28421;51.030;4.006;2022-07-04T14:00:11;26.40;93.40
29417;DHT22;28421;51.030;4.006;2022-07-04T14:02:37;26.00;99.90
29417;DHT22;28421;51.030;4.006;2022-07-04T14:05:03;26.10;94.10
29417;DHT22;28421;51.030;4.006;2022-07-04T14:07:28;25.40;94.40
29417;DHT22;28421;51.030;4.006;2022-07-04T14:09:54;25.20;95.20
29417;DHT22;28421;51.030;4.006;2022-07-04T14:12:20;25.70;95.40
29417;DHT22;28421;51.030;4.006;2022-07-04T14:14:46;26.30;94.90
29417;DHT22;28421;51.030;4.006;2022-07-04T14:17:11;26.40;94.70
29417;DHT22;28421;51.030;4.006;2022-07-04T14:19:37;26.40;95.10
29417;DHT22;28421;51.030;4.006;2022-07-04T14:24:29;26.00;93.70
29417;DHT22;28421;51.030;4.006;2022-07-04T14:26:55;25.90;94.50
29417;DHT22;28421;51.030;4.006;2022-07-04T14:29:21;25.80;94.40
29417;DHT22;28421;51.030;4.006;2022-07-04T14:31:47;25.80;95.10
29417;DHT22;28421;51.030;4.006;2022-07-04T14:34:13;26.20;94.70
29417;DHT22;28421;51.030;4.006;2022-07-04T14:36:39;26.80;94.80
29417;DHT22;28421;51.030;4.006;2022-07-04T14:39:06;26.90;94.10
29417;DHT22;28421;51.030;4.006;2022-07-04T14:43:59;26.40;99.90
29417;DHT22;28421;51.030;4.006;2022-07-04T14:46:24;26.70;94.10
29417;DHT22;28421;51.030;4.006;2022-07-04T14:48:50;26.60;93.40
29417;DHT22;28421;51.030;4.006;2022-07-04T14:56:08;25.60;93.90
29417;DHT22;28421;51.030;4.006;2022-07-04T14:58:34;25.90;94.70
29417;DHT22;28421;51.030;4.006;2022-07-04T15:01:00;26.10;94.40
29417;DHT22;28421;51.030;4.006;2022-07-04T15:03:25;26.10;94.10
29417;DHT22;28421;51.030;4.006;2022-07-04T15:05:51;26.60;94.30
29417;DHT22;28421;51.030;4.006;2022-07-04T15:08:17;26.50;99.90
29417;DHT22;28421;51.030;4.006;2022-07-04T15:10:43;26.80;93.40
29417;DHT22;28421;51.030;4.006;2022-07-04T15:13:09;26.00;99.90
29417;DHT22;28421;51.030;4.006;2022-07-04T15:20:28;25.60;94.50
29417;DHT22;28421;51.030;4.006;2022-07-04T15:23:12;25.80;94.80
29417;DHT22;28421;51.030;4.006;2022-07-04T15:25:57;25.60;94.60
29417;DHT22;28421;51.030;4.006;2022-07-04T15:28:22;25.20;94.70
29417;DHT22;28421;51.030;4.006;2022-07-04T15:30:48;25.20;94.60
29417;DHT22;28421;51.030;4.006;2022-07-04T15:35:44;25.00;95.10
29417;DHT22;28421;51.030;4.006;2022-07-04T15:38:11;23.90;99.90
29417;DHT22;28421;51.030;4.006;2022-07-04T15:43:03;23.40;99.90
29417;DHT22;28421;51.030;4.006;2022-07-04T15:45:29;23.40;99.90
29417;DHT22;28421;51.030;4.006;2022-07-04T15:52:49;23.10;99.90
29417;DHT22;28421;51.030;4.006;2022-07-04T16:00:07;24.50;99.90
29417;DHT22;28421;51.030;4.006;2022-07-04T16:05:04;22.70;99.90
29417;DHT22;28421;51.030;4.006;2022-07-04T16:12:22;22.90;99.90
29417;DHT22;28421;51.030;4.006;2022-07-04T16:26:58;23.20;99.90
29417;DHT22;28421;51.030;4.006;2022-07-04T16:29:24;23.20;99.90
29417;DHT22;28421;51.030;4.006;2022-07-04T16:39:08;24.10;99.90
29417;DHT22;28421;51.030;4.006;2022-07-04T16:48:52;24.60;99.90
29417;DHT22;28421;51.030;4.006;2022-07-04T16:51:17;24.60;99.90
29417;DHT22;28421;51.030;4.006;2022-07-04T16:53:43;23.80;99.90
29417;DHT22;28421;51.030;4.006;2022-07-04T16:56:09;23.90;99.80
29417;DHT22;28421;51.030;4.006;2022-07-04T16:58:34;23.40;99.90
29417;DHT22;28421;51.030;4.006;2022-07-04T17:01:00;23.20;99.90
29417;DHT22;28421;51.030;4.006;2022-07-04T17:03:26;23.30;99.90
29417;DHT22;28421;51.030;4.006;2022-07-04T17:05:52;23.90;99.90
29417;DHT22;28421;51.030;4.006;2022-07-04T17:08:18;24.20;99.80
29417;DHT22;28421;51.030;4.006;2022-07-04T17:10:44;23.80;99.90
29417;DHT22;28421;51.030;4.006;2022-07-04T17:13:10;22.80;99.90
29417;DHT22;28421;51.030;4.006;2022-07-04T17:20:28;23.00;99.90
29417;DHT22;28421;51.030;4.006;2022-07-04T17:25:20;22.30;99.90
29417;DHT22;28421;51.030;4.006;2022-07-04T17:27:46;22.80;99.90
29417;DHT22;28421;51.030;4.006;2022-07-04T17:35:04;22.10;99.90
29417;DHT22;28421;51.030;4.006;2022-07-04T17:44:48;21.80;99.90
29417;DHT22;28421;51.030;4.006;2022-07-04T17:47:14;22.00;99.90
29417;DHT22;28421;51.030;4.006;2022-07-04T17:49:40;22.10;99.90
29417;DHT22;28421;51.030;4.006;2022-07-04T17:52:05;22.60;99.90
29417;DHT22;28421;51.030;4.006;2022-07-04T17:54:31;22.30;99.90
29417;DHT22;28421;51.030;4.006;2022-07-04T17:56:57;22.00;99.90
29417;DHT22;28421;51.030;4.006;2022-07-04T17:59:22;21.80;99.90
29417;DHT22;28421;51.030;4.006;2022-07-04T18:01:51;21.80;99.90
29417;DHT22;28421;51.030;4.006;2022-07-04T18:04:17;21.70;99.90
29417;DHT22;28421;51.030;4.006;2022-07-04T18:09:09;21.60;99.90
29417;DHT22;28421;51.030;4.006;2022-07-04T18:11:35;21.40;99.90
29417;DHT22;28421;51.030;4.006;2022-07-04T18:14:01;21.70;99.90
29417;DHT22;28421;51.030;4.006;2022-07-04T18:16:27;22.10;99.90
29417;DHT22;28421;51.030;4.006;2022-07-04T18:18:53;22.00;99.90
29417;DHT22;28421;51.030;4.006;2022-07-04T18:21:19;21.70;99.90
29417;DHT22;28421;51.030;4.006;2022-07-04T18:31:06;21.50;99.90
29417;DHT22;28421;51.030;4.006;2022-07-04T18:35:59;21.90;99.90
29417;DHT22;28421;51.030;4.006;2022-07-04T18:38:25;21.30;99.90
29417;DHT22;28421;51.030;4.006;2022-07-04T18:40:51;21.40;99.90
29417;DHT22;28421;51.030;4.006;2022-07-04T18:43:35;21.10;99.90
29417;DHT22;28421;51.030;4.006;2022-07-04T18:46:02;21.10;99.90
29417;DHT22;28421;51.030;4.006;2022-07-04T18:48:29;21.10;99.90
29417;DHT22;28421;51.030;4.006;2022-07-04T18:50:56;21.30;99.90
29417;DHT22;28421;51.030;4.006;2022-07-04T18:53:23;21.00;99.90
29417;DHT22;28421;51.030;4.006;2022-07-04T18:55:49;21.30;99.90
29417;DHT22;28421;51.030;4.006;2022-07-04T18:58:16;21.00;99.70
29417;DHT22;28421;51.030;4.006;2022-07-04T19:00:42;21.00;99.90
29417;DHT22;28421;51.030;4.006;2022-07-04T19:03:10;21.20;99.90
29417;DHT22;28421;51.030;4.006;2022-07-04T19:05:36;21.50;99.90
29417;DHT22;28421;51.030;4.006;2022-07-04T19:08:03;21.10;99.70
29417;DHT22;28421;51.030;4.006;2022-07-04T19:10:30;21.40;99.90
29417;DHT22;28421;51.030;4.006;2022-07-04T19:17:51;20.80;99.90
29417;DHT22;28421;51.030;4.006;2022-07-04T19:25:10;20.80;99.90
29417;DHT22;28421;51.030;4.006;2022-07-04T19:30:04;20.60;99.90
29417;DHT22;28421;51.030;4.006;2022-07-04T19:34:56;21.00;99.30
29417;DHT22;28421;51.030;4.006;2022-07-04T19:42:15;20.60;99.70
29417;DHT22;28421;51.030;4.006;2022-07-04T19:44:49;20.20;99.90
29417;DHT22;28421;51.030;4.006;2022-07-04T19:47:15;20.10;99.90
29417;DHT22;28421;51.030;4.006;2022-07-04T19:59:49;19.40;99.90
29417;DHT22;28421;51.030;4.006;2022-07-04T20:04:41;19.50;99.90
29417;DHT22;28421;51.030;4.006;2022-07-04T20:12:00;19.20;99.90
29417;DHT22;28421;51.030;4.006;2022-07-04T20:16:52;19.60;99.90
29417;DHT22;28421;51.030;4.006;2022-07-04T20:21:45;19.10;99.90
29417;DHT22;28421;51.030;4.006;2022-07-04T20:29:04;18.90;99.90